Glasgo, Connecticut
Current Conditions -  °F | °C
As of 9:53 PM on Tuesday 21 Oct 2014 (Local Time) from KWST Reporting Station
Broken Clouds Broken Clouds  
Wind Chill: 57°   Ceiling: 10000
Heat Index: 57°   Visibility: 10mi
Dew Point: 56°   Wind: 5mph
Humidity: 96%   Direction: 50°NE
Pressure: 29.93"   Gusts: NA
Location:  41.56°N, 71.89°W
Report Text: KWST 220153Z AUTO 05004KT 10SM BKN100 14/13 A2993 RMK AO2 SLP135 T01390133
Loading
Personal Weather Stations






























Interactive Weather Map New forecast layout! Learn more

10-Day Weather Forecast

Advertisements
Track Severe Weather on mobile